Time;durP1;ratioP1;P1;durP2;ratioP2;P2;SDS_P1;SDS_P2;PMS_P1;PMS_P2;Temp;Humidity;BMP_temperature;BMP_pressure;BME280_temperature;BME280_humidity;BME280_pressure;Samples;Min_cycle;Max_cycle;Signal;HPM_P1;HPM_P2
2024/04/09 00:01:33;;;;;;;10.27;9.00;;;15.10;99.90;;;;;;5456167;26;20501;-73
2024/04/09 00:04:00;;;;;;;12.43;9.15;;;15.10;99.90;;;;;;5456407;26;19994;-73
2024/04/09 00:06:28;;;;;;;10.88;5.95;;;15.10;99.90;;;;;;5457146;26;20466;-73
2024/04/09 00:08:55;;;;;;;9.77;8.77;;;15.10;99.90;;;;;;5489719;26;19994;-73
2024/04/09 00:11:24;;;;;;;12.18;9.73;;;15.10;99.90;;;;;;5489725;26;20009;-73
2024/04/09 00:13:52;;;;;;;14.00;10.07;;;15.20;99.90;;;;;;5457577;26;20009;-73
2024/04/09 00:16:24;;;;;;;12.18;9.20;;;15.20;99.90;;;;;;5457084;26;20012;-73
2024/04/09 00:18:55;;;;;;;8.27;7.53;;;15.20;99.90;;;;;;5456126;26;20451;-73
2024/04/09 00:21:24;;;;;;;9.68;8.68;;;15.20;99.90;;;;;;5457401;26;20012;-73
2024/04/09 00:23:51;;;;;;;8.98;7.75;;;15.20;99.90;;;;;;5457317;26;20400;-73
2024/04/09 00:26:19;;;;;;;12.02;9.88;;;15.20;99.90;;;;;;5427183;26;20446;-73
2024/04/09 00:28:47;;;;;;;10.82;9.52;;;15.30;99.90;;;;;;5488719;26;20570;-73
2024/04/09 00:31:16;;;;;;;10.25;8.00;;;15.20;99.90;;;;;;5457267;26;20002;-72
2024/04/09 00:33:44;;;;;;;11.20;7.40;;;15.30;99.90;;;;;;5488894;26;20453;-73
2024/04/09 00:36:14;;;;;;;11.38;9.02;;;15.20;99.90;;;;;;5489358;26;19994;-73
2024/04/09 00:38:41;;;;;;;11.38;9.45;;;15.30;99.90;;;;;;5458018;26;19994;-73
2024/04/09 00:41:10;;;;;;;11.38;8.30;;;15.20;99.90;;;;;;5489268;26;19994;-74
2024/04/09 00:43:37;;;;;;;12.10;9.05;;;15.10;99.90;;;;;;5488794;26;20309;-73
2024/04/09 00:46:05;;;;;;;11.55;10.25;;;15.10;99.90;;;;;;5456944;26;20066;-73
2024/04/09 00:48:34;;;;;;;11.65;9.98;;;15.10;99.90;;;;;;5488687;26;20005;-73
2024/04/09 00:51:04;;;;;;;11.85;8.90;;;15.00;99.90;;;;;;5457017;26;20327;-73
2024/04/09 00:53:32;;;;;;;14.93;10.00;;;15.00;99.90;;;;;;5488341;26;20038;-73
2024/04/09 00:56:01;;;;;;;12.10;9.30;;;15.00;99.90;;;;;;5456833;26;19998;-73
2024/04/09 00:58:28;;;;;;;13.18;9.32;;;14.90;99.90;;;;;;5488554;26;20047;-73
2024/04/09 01:00:58;;;;;;;15.07;10.50;;;14.80;99.90;;;;;;5488470;26;19998;-73
2024/04/09 01:03:26;;;;;;;11.82;9.00;;;14.80;99.90;;;;;;5488334;26;20360;-73
2024/04/09 01:05:54;;;;;;;10.60;9.38;;;14.70;99.90;;;;;;5456441;26;20034;-73
2024/04/09 01:08:21;;;;;;;11.98;9.27;;;14.60;99.90;;;;;;5488211;26;20043;-73
2024/04/09 01:10:48;;;;;;;12.50;10.35;;;14.60;99.90;;;;;;5455761;26;19998;-73
2024/04/09 01:13:16;;;;;;;14.32;9.68;;;14.60;99.90;;;;;;5488216;26;20026;-73
2024/04/09 01:15:43;;;;;;;11.43;9.48;;;14.50;99.90;;;;;;5455829;26;20005;-73
2024/04/09 01:18:10;;;;;;;16.23;10.02;;;14.50;99.90;;;;;;5488213;26;20037;-73
2024/04/09 01:20:37;;;;;;;11.00;8.70;;;14.50;99.90;;;;;;5487864;26;20005;-73
2024/04/09 01:23:04;;;;;;;16.20;10.65;;;14.50;99.90;;;;;;5456418;26;20321;-73
2024/04/09 01:25:31;;;;;;;13.65;10.70;;;14.50;99.90;;;;;;5488091;26;19994;-73
2024/04/09 01:27:58;;;;;;;18.73;10.85;;;14.50;99.90;;;;;;5455622;26;20066;-73
2024/04/09 01:30:26;;;;;;;16.33;9.95;;;14.50;99.90;;;;;;5458142;26;20006;-73
2024/04/09 01:32:53;;;;;;;17.73;11.27;;;14.50;99.90;;;;;;5459229;26;20500;-72
2024/04/09 01:35:20;;;;;;;15.23;10.48;;;14.60;99.90;;;;;;5459335;26;19998;-73
2024/04/09 01:37:48;;;;;;;14.32;10.40;;;14.60;99.90;;;;;;5429601;26;20074;-72
2024/04/09 01:40:15;;;;;;;17.13;10.98;;;14.60;99.90;;;;;;5491447;26;20009;-73
2024/04/09 01:42:42;;;;;;;14.07;9.32;;;14.60;99.90;;;;;;5458786;26;19998;-73
2024/04/09 01:45:09;;;;;;;11.65;9.23;;;14.60;99.90;;;;;;5491413;26;20010;-73
2024/04/09 01:47:36;;;;;;;16.45;10.68;;;14.60;99.90;;;;;;5459200;26;20002;-73
2024/04/09 01:50:04;;;;;;;13.32;9.65;;;14.60;99.90;;;;;;5459568;26;20073;-73
2024/04/09 01:52:32;;;;;;;12.73;9.75;;;14.60;99.90;;;;;;5491331;26;20074;-73
2024/04/09 01:54:59;;;;;;;16.48;10.70;;;14.70;99.90;;;;;;5491247;26;20005;-73
2024/04/09 01:57:31;;;;;;;16.88;10.32;;;14.70;99.90;;;;;;5429641;26;19994;-73
2024/04/09 01:59:59;;;;;;;14.68;9.30;;;14.70;99.90;;;;;;5458838;26;20002;-73
2024/04/09 02:02:26;;;;;;;14.65;9.85;;;14.80;99.90;;;;;;5459612;26;20012;-73
2024/04/09 02:04:53;;;;;;;14.38;10.68;;;14.80;99.90;;;;;;5429313;26;20005;-73
2024/04/09 02:07:21;;;;;;;8.48;5.68;;;14.80;99.90;;;;;;5491509;26;20006;-73
2024/04/09 02:09:52;;;;;;;12.38;10.50;;;14.80;99.90;;;;;;5490871;26;20469;-73
2024/04/09 02:12:19;;;;;;;15.88;10.15;;;14.90;99.90;;;;;;5458870;26;20009;-73
2024/04/09 02:14:48;;;;;;;16.88;9.63;;;14.90;99.90;;;;;;5458754;26;20030;-73
2024/04/09 02:17:15;;;;;;;16.83;9.07;;;14.90;99.90;;;;;;5458691;26;20002;-73
2024/04/09 02:19:42;;;;;;;15.82;9.38;;;14.90;99.90;;;;;;5490917;26;19998;-72
2024/04/09 02:22:09;;;;;;;13.75;9.88;;;14.90;99.90;;;;;;5459122;26;20428;-73
2024/04/09 02:24:37;;;;;;;12.68;9.95;;;14.80;99.90;;;;;;5458986;26;19998;-73
2024/04/09 02:27:04;;;;;;;15.57;11.20;;;14.70;99.90;;;;;;5458334;26;20388;-73
2024/04/09 02:29:31;;;;;;;19.67;11.40;;;14.60;99.90;;;;;;5458827;26;20385;-73
2024/04/09 02:31:59;;;;;;;14.77;11.02;;;14.60;99.90;;;;;;5428457;26;20063;-73
2024/04/09 02:34:26;;;;;;;12.80;10.73;;;14.40;99.90;;;;;;5491029;26;20364;-73
2024/04/09 02:36:53;;;;;;;16.58;9.15;;;14.40;99.90;;;;;;5490724;26;20018;-73
2024/04/09 02:39:22;;;;;;;15.70;10.07;;;14.40;99.90;;;;;;5490726;26;19998;-73
2024/04/09 02:41:49;;;;;;;13.95;8.93;;;14.40;99.90;;;;;;5457473;26;19998;-73
2024/04/09 02:44:16;;;;;;;13.90;9.68;;;14.40;99.90;;;;;;5490653;26;20006;-73
2024/04/09 02:46:43;;;;;;;10.30;7.70;;;14.40;99.90;;;;;;5490889;26;20321;-72
2024/04/09 02:49:11;;;;;;;19.23;9.90;;;14.40;99.90;;;;;;5490059;26;20089;-73
2024/04/09 02:51:39;;;;;;;13.77;9.60;;;14.40;99.90;;;;;;5428635;26;19998;-73
2024/04/09 02:54:07;;;;;;;11.35;8.50;;;14.40;99.90;;;;;;5490229;26;20022;-72
2024/04/09 02:56:34;;;;;;;11.93;8.80;;;14.40;99.90;;;;;;5458487;26;20009;-72
2024/04/09 02:59:03;;;;;;;16.02;11.25;;;14.40;99.90;;;;;;5458184;26;20012;-73
2024/04/09 03:01:30;;;;;;;17.00;11.43;;;14.40;99.90;;;;;;5447628;26;19999;-73
2024/04/09 03:03:57;;;;;;;13.25;9.88;;;14.40;99.90;;;;;;5451603;26;20009;-72
2024/04/09 03:06:24;;;;;;;16.42;9.63;;;14.40;99.90;;;;;;5439119;26;20440;-72
2024/04/09 03:08:51;;;;;;;21.85;11.30;;;14.30;99.90;;;;;;5489236;26;20006;-73
2024/04/09 03:11:19;;;;;;;20.80;10.23;;;14.20;99.90;;;;;;5458139;26;20009;-73
2024/04/09 03:13:51;;;;;;;13.43;11.18;;;14.20;99.90;;;;;;5489966;26;19994;-72
2024/04/09 03:16:20;;;;;;;12.82;9.85;;;14.10;99.90;;;;;;5458082;26;20005;-73
2024/04/09 03:18:50;;;;;;;15.40;12.10;;;14.00;99.90;;;;;;5457904;26;19998;-72
2024/04/09 03:21:17;;;;;;;15.30;11.15;;;13.90;99.90;;;;;;5490445;26;20065;-72
2024/04/09 03:23:44;;;;;;;17.60;12.07;;;13.80;99.90;;;;;;5458688;26;20435;-72
2024/04/09 03:26:13;;;;;;;15.55;11.18;;;13.80;99.90;;;;;;5458603;26;20009;-73
2024/04/09 03:28:41;;;;;;;14.20;12.13;;;13.80;99.90;;;;;;5458258;26;20003;-73
2024/04/09 03:31:09;;;;;;;14.57;12.57;;;13.80;99.90;;;;;;5428281;26;20009;-72
2024/04/09 03:33:37;;;;;;;18.48;12.25;;;13.90;99.90;;;;;;5457662;26;19998;-72
2024/04/09 03:36:06;;;;;;;17.00;11.88;;;13.90;99.90;;;;;;5489592;26;20010;-73
2024/04/09 03:38:33;;;;;;;16.33;11.63;;;14.00;99.90;;;;;;5457850;26;20315;-73
2024/04/09 03:41:05;;;;;;;15.07;12.23;;;14.00;99.90;;;;;;5457604;26;19998;-73
2024/04/09 03:43:32;;;;;;;20.70;12.45;;;14.00;99.90;;;;;;5489823;26;20016;-72
2024/04/09 03:46:14;;;;;;;19.35;13.23;;;14.00;99.90;;;;;;5489473;26;20331;-72
2024/04/09 03:48:45;;;;;;;16.83;10.82;;;14.00;99.90;;;;;;5489498;26;20010;-72
2024/04/09 03:51:14;;;;;;;14.43;10.07;;;14.00;99.90;;;;;;5458136;26;20434;-72
2024/04/09 03:53:44;;;;;;;16.65;11.95;;;13.90;99.90;;;;;;5488145;26;19998;-73
2024/04/09 03:56:12;;;;;;;16.98;12.02;;;13.90;99.90;;;;;;5489635;26;19994;-72
2024/04/09 03:58:41;;;;;;;18.23;13.20;;;13.90;99.90;;;;;;5427757;26;19998;-72
2024/04/09 04:01:10;;;;;;;17.38;12.45;;;13.80;99.90;;;;;;5427638;26;20434;-72
2024/04/09 04:03:45;;;;;;;16.92;12.05;;;13.80;99.90;;;;;;5427981;26;20008;-73
2024/04/09 04:06:14;;;;;;;16.77;13.55;;;13.80;99.90;;;;;;5489314;26;19998;-72
2024/04/09 04:08:43;;;;;;;16.08;9.38;;;13.80;99.90;;;;;;5489342;26;20013;-73
2024/04/09 04:11:12;;;;;;;17.73;10.52;;;13.70;99.90;;;;;;5457331;26;20069;-73
2024/04/09 04:13:40;;;;;;;9.57;6.65;;;13.70;99.90;;;;;;5427344;26;20308;-73
2024/04/09 04:16:14;;;;;;;10.23;7.80;;;13.70;99.90;;;;;;5488804;26;19998;-72
2024/04/09 04:18:43;;;;;;;12.27;7.90;;;13.70;99.90;;;;;;5457445;26;20352;-72
2024/04/09 04:21:12;;;;;;;8.93;7.40;;;13.80;99.90;;;;;;5457171;26;20014;-73
2024/04/09 04:23:40;;;;;;;12.05;8.27;;;13.80;99.90;;;;;;5489096;26;20347;-73
2024/04/09 04:26:13;;;;;;;9.25;7.25;;;13.90;99.90;;;;;;5397700;26;20339;-73
2024/04/09 04:28:41;;;;;;;7.97;5.07;;;14.00;99.90;;;;;;5457229;26;20002;-73
2024/04/09 04:31:16;;;;;;;10.23;8.63;;;14.10;99.90;;;;;;5488809;26;20047;-73
2024/04/09 04:33:44;;;;;;;5.35;3.95;;;14.10;99.90;;;;;;5456856;26;20321;-72
2024/04/09 04:36:13;;;;;;;9.65;7.07;;;14.10;99.90;;;;;;5488627;26;20002;-72
2024/04/09 04:38:42;;;;;;;9.13;5.15;;;14.10;99.90;;;;;;5458272;26;20002;-72
2024/04/09 04:41:10;;;;;;;5.47;3.88;;;14.10;99.90;;;;;;5456795;26;20438;-73
2024/04/09 04:43:38;;;;;;;8.80;5.43;;;14.10;99.90;;;;;;5456763;26;20361;-72
2024/04/09 04:46:09;;;;;;;5.18;4.18;;;14.00;99.90;;;;;;5488293;26;20431;-72
2024/04/09 04:48:37;;;;;;;5.28;3.25;;;14.00;99.90;;;;;;5488832;26;19998;-72
2024/04/09 04:51:05;;;;;;;4.45;4.05;;;13.90;99.90;;;;;;5488379;26;20010;-72
2024/04/09 04:53:32;;;;;;;5.22;3.20;;;13.90;99.90;;;;;;5488388;26;20006;-72
2024/04/09 04:55:59;;;;;;;4.35;2.88;;;13.90;99.90;;;;;;5456975;26;20400;-72
2024/04/09 04:58:26;;;;;;;3.47;2.58;;;14.00;99.90;;;;;;5456435;26;20364;-72
2024/04/09 05:00:53;;;;;;;4.90;4.53;;;14.00;99.90;;;;;;5481454;26;20401;-72
2024/04/09 05:03:20;;;;;;;3.33;2.35;;;14.10;99.90;;;;;;5393948;26;20007;-72
2024/04/09 05:05:48;;;;;;;4.55;3.38;;;14.10;99.90;;;;;;5391369;26;20013;-72
2024/04/09 05:08:17;;;;;;;3.80;2.60;;;14.20;99.90;;;;;;5455476;26;20006;-73
2024/04/09 05:10:44;;;;;;;3.58;2.92;;;14.20;99.90;;;;;;5424067;26;20006;-72
2024/04/09 05:13:11;;;;;;;4.35;3.95;;;14.30;99.90;;;;;;5424192;26;20040;-73
2024/04/09 05:15:38;;;;;;;5.78;3.72;;;14.30;99.90;;;;;;5424207;26;20398;-72
2024/04/09 05:18:08;;;;;;;8.25;4.15;;;14.30;99.90;;;;;;5424314;26;19995;-73
2024/04/09 05:20:36;;;;;;;5.13;4.30;;;14.30;99.90;;;;;;5424874;26;20010;-73
2024/04/09 05:23:03;;;;;;;3.45;3.00;;;14.40;99.90;;;;;;5424258;26;20025;-73
2024/04/09 05:25:33;;;;;;;7.05;4.70;;;14.40;99.90;;;;;;5454787;26;20006;-72
2024/04/09 05:28:00;;;;;;;7.75;4.90;;;14.40;99.90;;;;;;5455126;26;20002;-73
2024/04/09 05:30:28;;;;;;;4.30;3.88;;;14.40;99.90;;;;;;5454861;26;20013;-73
2024/04/09 05:32:55;;;;;;;7.20;5.20;;;14.40;99.90;;;;;;5455163;26;20009;-73
2024/04/09 05:35:22;;;;;;;3.90;3.60;;;14.50;99.90;;;;;;5423415;26;20014;-72
2024/04/09 05:37:50;;;;;;;5.28;4.68;;;14.60;99.90;;;;;;5394221;26;20003;-73
2024/04/09 05:40:17;;;;;;;7.95;4.28;;;14.50;99.90;;;;;;5454869;26;20013;-73
2024/04/09 05:42:46;;;;;;;3.70;3.35;;;14.60;99.90;;;;;;5454998;26;19999;-73
2024/04/09 05:45:19;;;;;;;7.07;5.50;;;14.60;99.90;;;;;;5394008;26;20039;-73
2024/04/09 05:47:46;;;;;;;6.55;5.35;;;14.60;99.90;;;;;;5423366;26;19995;-73
2024/04/09 05:50:13;;;;;;;6.50;4.30;;;14.60;99.90;;;;;;5393975;26;20003;-73
2024/04/09 05:52:41;;;;;;;5.47;4.88;;;14.70;99.90;;;;;;5423162;26;19995;-73
2024/04/09 05:55:09;;;;;;;6.05;5.45;;;14.70;99.90;;;;;;5454849;26;20343;-73
2024/04/09 05:57:39;;;;;;;6.78;4.20;;;14.70;99.90;;;;;;5394703;26;20328;-72
2024/04/09 06:00:11;;;;;;;9.23;5.63;;;14.70;99.90;;;;;;5455195;26;20347;-74
2024/04/09 06:02:45;;;;;;;6.07;4.57;;;14.70;99.90;;;;;;5456587;26;20143;-73
2024/04/09 06:05:15;;;;;;;6.80;4.22;;;14.80;99.90;;;;;;5422210;26;20460;-73
2024/04/09 06:07:45;;;;;;;5.05;4.55;;;14.70;99.90;;;;;;5421781;26;19999;-73
2024/04/09 06:10:15;;;;;;;6.05;3.70;;;14.60;99.90;;;;;;5454638;26;19999;-73
2024/04/09 06:12:42;;;;;;;5.57;4.43;;;14.70;99.90;;;;;;5423127;26;20013;-73
2024/04/09 06:15:10;;;;;;;5.35;4.47;;;14.60;99.90;;;;;;5422584;26;20031;-73
2024/04/09 06:17:37;;;;;;;4.95;4.43;;;14.60;99.90;;;;;;5392086;26;20359;-73
2024/04/09 06:20:05;;;;;;;7.85;4.93;;;14.50;99.90;;;;;;5423103;26;20014;-73
2024/04/09 06:22:32;;;;;;;6.18;4.03;;;14.50;99.90;;;;;;5393757;26;19999;-73
2024/04/09 06:24:59;;;;;;;7.35;4.35;;;14.40;99.90;;;;;;5453913;26;20344;-74
2024/04/09 06:27:26;;;;;;;8.02;4.18;;;14.40;99.90;;;;;;5453854;26;20011;-73
2024/04/09 06:29:54;;;;;;;6.53;3.92;;;14.40;99.90;;;;;;5454911;26;20328;-73
2024/04/09 06:32:21;;;;;;;6.40;3.25;;;14.40;99.90;;;;;;5422369;26;20485;-73
2024/04/09 06:34:48;;;;;;;4.72;3.00;;;14.40;99.90;;;;;;5422468;26;20023;-73
2024/04/09 06:37:15;;;;;;;3.55;2.50;;;14.40;99.90;;;;;;5393557;26;20006;-72
2024/04/09 06:39:43;;;;;;;5.93;3.63;;;14.40;99.90;;;;;;5422787;26;19995;-73
2024/04/09 06:42:10;;;;;;;4.72;2.85;;;14.40;99.90;;;;;;5454348;26;20017;-73
2024/04/09 06:44:37;;;;;;;5.55;2.88;;;14.40;99.90;;;;;;5422535;26;20014;-73
2024/04/09 06:47:05;;;;;;;6.55;3.00;;;14.40;99.90;;;;;;5422630;26;20010;-73
2024/04/09 06:49:32;;;;;;;4.85;2.45;;;14.50;99.90;;;;;;5421869;26;19999;-73
2024/04/09 06:51:59;;;;;;;1.77;1.45;;;14.40;99.90;;;;;;5422386;26;20019;-73
2024/04/09 06:54:27;;;;;;;2.78;2.15;;;14.40;99.90;;;;;;5453289;26;20329;-73
2024/04/09 06:56:54;;;;;;;5.50;1.67;;;14.40;99.90;;;;;;5422313;26;20394;-73
2024/04/09 06:59:22;;;;;;;3.63;2.03;;;14.30;99.90;;;;;;5422202;26;20011;-72
2024/04/09 07:01:49;;;;;;;6.78;1.88;;;14.30;99.90;;;;;;5422307;26;20038;-73
2024/04/09 07:04:16;;;;;;;2.25;0.93;;;14.30;99.90;;;;;;5421875;26;20328;-72
2024/04/09 07:06:44;;;;;;;1.95;1.33;;;14.30;99.90;;;;;;5453748;26;20432;-73
2024/04/09 07:09:16;;;;;;;1.63;1.33;;;14.20;99.90;;;;;;5454195;26;20031;-73
2024/04/09 07:11:45;;;;;;;1.98;1.85;;;14.10;99.90;;;;;;5453733;26;20394;-73
2024/04/09 07:14:15;;;;;;;3.65;1.63;;;14.10;99.90;;;;;;5421953;26;19999;-73
2024/04/09 07:16:43;;;;;;;5.28;2.90;;;14.10;99.90;;;;;;5393253;26;20028;-73
2024/04/09 07:19:10;;;;;;;5.60;1.95;;;14.10;99.90;;;;;;5422125;26;20002;-73
2024/04/09 07:21:38;;;;;;;5.55;2.03;;;14.00;99.90;;;;;;5421690;26;20067;-73
2024/04/09 07:24:06;;;;;;;4.45;2.40;;;14.00;99.90;;;;;;5453522;26;19999;-73
2024/04/09 07:26:34;;;;;;;4.88;2.20;;;14.00;99.90;;;;;;5421624;26;19998;-72
2024/04/09 07:29:01;;;;;;;6.65;1.58;;;14.10;99.90;;;;;;5421687;26;20014;-73
2024/04/09 07:31:28;;;;;;;3.03;1.50;;;14.20;99.90;;;;;;5421572;26;20013;-73
2024/04/09 07:33:55;;;;;;;3.25;1.27;;;14.30;99.90;;;;;;5421684;26;19998;-73
2024/04/09 07:36:23;;;;;;;5.93;1.63;;;14.40;99.90;;;;;;5421940;26;20011;-73
2024/04/09 07:38:52;;;;;;;3.97;1.80;;;14.40;99.90;;;;;;5421908;26;20341;-73
2024/04/09 07:41:22;;;;;;;2.10;1.60;;;14.50;99.90;;;;;;5392787;26;20305;-73
2024/04/09 07:43:50;;;;;;;5.80;1.92;;;14.60;99.90;;;;;;5453148;26;20418;-73
2024/04/09 07:46:17;;;;;;;4.38;1.70;;;14.70;99.90;;;;;;5421804;26;20006;-73
2024/04/09 07:48:44;;;;;;;7.38;2.85;;;14.70;99.90;;;;;;5421552;26;20009;-73
2024/04/09 07:51:11;;;;;;;5.35;2.65;;;14.80;99.90;;;;;;5453462;26;20005;-74
2024/04/09 07:53:38;;;;;;;5.40;2.40;;;14.80;99.90;;;;;;5452838;26;20038;-73
2024/04/09 07:56:06;;;;;;;4.30;2.47;;;14.80;99.90;;;;;;5453050;26;20450;-73
2024/04/09 07:58:33;;;;;;;5.63;2.83;;;14.90;99.90;;;;;;5392195;26;20386;-73
2024/04/09 08:01:02;;;;;;;7.13;2.45;;;14.80;99.90;;;;;;5452848;26;20005;-73
2024/04/09 08:03:29;;;;;;;7.50;2.58;;;14.90;99.90;;;;;;5421730;26;20471;-73
2024/04/09 08:05:57;;;;;;;3.10;1.73;;;14.90;99.90;;;;;;5452820;26;20006;-73
2024/04/09 08:08:24;;;;;;;5.50;2.40;;;14.90;99.90;;;;;;5452816;26;20009;-73
2024/04/09 08:10:51;;;;;;;8.45;3.05;;;14.70;99.90;;;;;;5362390;26;20017;-73
2024/04/09 08:13:18;;;;;;;6.90;2.30;;;14.60;99.90;;;;;;5421336;26;20071;-73
2024/04/09 08:15:46;;;;;;;1.98;1.70;;;14.40;99.90;;;;;;5420573;26;20026;-73
2024/04/09 08:18:13;;;;;;;4.18;2.33;;;14.30;99.90;;;;;;5421234;26;20010;-73
2024/04/09 08:20:41;;;;;;;2.13;1.92;;;14.10;99.90;;;;;;5391072;26;20003;-73
2024/04/09 08:23:09;;;;;;;2.80;1.42;;;14.00;99.90;;;;;;5452493;26;20002;-73
2024/04/09 08:25:37;;;;;;;7.07;2.15;;;13.90;99.90;;;;;;5452285;26;19994;-73
2024/04/09 08:28:04;;;;;;;5.15;2.80;;;13.80;99.90;;;;;;5452902;26;20017;-73
2024/04/09 08:30:31;;;;;;;2.90;1.58;;;13.70;99.90;;;;;;5420835;26;20007;-73
2024/04/09 08:32:58;;;;;;;16.05;3.83;;;13.60;99.90;;;;;;5452624;26;20010;-72
2024/04/09 08:35:26;;;;;;;5.63;2.35;;;13.60;99.90;;;;;;5452709;26;20022;-73
2024/04/09 08:37:54;;;;;;;11.82;2.88;;;13.60;99.90;;;;;;5420459;26;20038;-73
2024/04/09 08:40:22;;;;;;;5.22;2.13;;;13.60;99.90;;;;;;5420186;26;20538;-73
2024/04/09 08:42:53;;;;;;;2.80;2.20;;;13.70;99.90;;;;;;5420219;26;19999;-73
2024/04/09 08:45:23;;;;;;;4.80;3.42;;;13.70;99.90;;;;;;5421629;26;20003;-73
2024/04/09 08:47:51;;;;;;;7.80;2.08;;;13.80;99.90;;;;;;5419777;26;19998;-73
2024/04/09 08:50:20;;;;;;;3.75;2.33;;;14.00;99.90;;;;;;5451906;26;20505;-73
2024/04/09 08:52:47;;;;;;;3.33;2.47;;;14.20;99.90;;;;;;5451870;26;20038;-73
2024/04/09 08:55:15;;;;;;;3.50;2.22;;;14.50;99.90;;;;;;5390794;26;20006;-73
2024/04/09 08:57:47;;;;;;;7.90;2.58;;;14.60;99.90;;;;;;5451745;26;19999;-73
2024/04/09 09:00:16;;;;;;;3.05;1.88;;;14.70;99.90;;;;;;5420271;26;20031;-73
2024/04/09 09:02:43;;;;;;;3.53;2.22;;;14.70;99.90;;;;;;5420975;26;20011;-73
2024/04/09 09:05:18;;;;;;;5.65;2.72;;;14.60;99.90;;;;;;5420550;26;19995;-73
2024/04/09 09:07:58;;;;;;;5.45;2.38;;;14.50;99.90;;;;;;5420325;26;20325;-73
2024/04/09 09:10:28;;;;;;;4.88;2.55;;;14.40;99.90;;;;;;5420328;26;20027;-73
2024/04/09 09:13:02;;;;;;;4.88;3.08;;;14.30;99.90;;;;;;5451834;26;20309;-73
2024/04/09 09:15:29;;;;;;;5.15;2.42;;;14.20;99.90;;;;;;5420766;26;19995;-74
2024/04/09 09:17:56;;;;;;;5.15;3.05;;;14.30;99.90;;;;;;5451417;26;20389;-73
2024/04/09 09:20:24;;;;;;;4.30;1.90;;;14.30;99.90;;;;;;5451427;26;20006;-73
2024/04/09 09:22:54;;;;;;;5.30;3.22;;;14.30;99.90;;;;;;5451277;26;20010;-73
2024/04/09 09:25:28;;;;;;;3.47;2.63;;;14.30;99.90;;;;;;5419890;26;20341;-73
2024/04/09 09:28:07;;;;;;;5.10;2.72;;;14.50;99.90;;;;;;5451263;26;19999;-73
2024/04/09 09:30:42;;;;;;;5.45;3.00;;;14.70;99.90;;;;;;5451361;26;20441;-73
2024/04/09 09:33:19;;;;;;;4.47;3.42;;;14.80;99.90;;;;;;5451338;26;20009;-73
2024/04/09 09:35:50;;;;;;;;;;;15.10;99.90;;;;;;5451610;26;20409;-73
2024/04/09 09:38:22;;;;;;;4.05;3.08;;;15.70;99.90;;;;;;5451412;26;19932;-73
2024/04/09 09:40:51;;;;;;;5.78;3.60;;;16.60;99.90;;;;;;5450961;26;20428;-73
2024/04/09 09:43:21;;;;;;;6.63;2.65;;;16.90;99.90;;;;;;5451271;26;20065;-73
2024/04/09 09:45:48;;;;;;;4.22;3.83;;;17.00;99.80;;;;;;5389862;26;20328;-73
2024/04/09 09:48:19;;;;;;;3.08;2.83;;;17.00;99.80;;;;;;5451195;26;19995;-73
2024/04/09 09:50:47;;;;;;;8.00;3.88;;;16.90;99.50;;;;;;5419072;26;20013;-74
2024/04/09 09:53:16;;;;;;;4.18;3.55;;;16.80;99.00;;;;;;5454174;26;20340;-73
2024/04/09 09:55:45;;;;;;;7.88;5.22;;;16.70;98.10;;;;;;5422840;26;20331;-73
2024/04/09 09:58:18;;;;;;;3.17;2.70;;;16.50;98.60;;;;;;5455109;26;20006;-73
2024/04/09 10:00:48;;;;;;;4.65;3.45;;;16.40;98.70;;;;;;5422552;26;20074;-73
2024/04/09 10:03:16;;;;;;;3.55;2.63;;;16.50;98.00;;;;;;5454562;26;20072;-73
2024/04/09 10:05:45;;;;;;;3.67;2.55;;;16.60;97.50;;;;;;5454274;26;20467;-74
2024/04/09 10:08:18;;;;;;;5.20;3.15;;;17.00;97.20;;;;;;5423099;26;20014;-73
2024/04/09 10:10:51;;;;;;;4.22;2.42;;;17.40;95.00;;;;;;5454169;26;20010;-73
2024/04/09 10:13:23;;;;;;;4.22;2.58;;;17.80;93.90;;;;;;5423214;26;20424;-73
2024/04/09 10:15:54;;;;;;;3.85;1.80;;;18.10;92.80;;;;;;5454468;26;20470;-73
2024/04/09 10:18:37;;;;;;;1.42;1.13;;;18.50;88.50;;;;;;5454295;26;20093;-73
2024/04/09 10:21:05;;;;;;;4.78;1.17;;;18.60;80.10;;;;;;5454025;26;19998;-73
2024/04/09 10:23:38;;;;;;;1.25;0.90;;;18.60;78.80;;;;;;5454414;26;19995;-73
2024/04/09 10:26:05;;;;;;;2.92;1.10;;;18.30;75.50;;;;;;5422997;26;20005;-73
2024/04/09 10:28:35;;;;;;;3.28;1.27;;;18.20;77.80;;;;;;5454699;26;19995;-73
2024/04/09 10:31:05;;;;;;;2.67;1.10;;;18.40;78.20;;;;;;5454016;26;20317;-73
2024/04/09 10:33:33;;;;;;;2.17;0.73;;;18.30;78.50;;;;;;5454560;26;19994;-73
2024/04/09 10:36:06;;;;;;;2.08;1.10;;;18.20;77.50;;;;;;5453872;26;20544;-73
2024/04/09 10:38:37;;;;;;;2.45;0.98;;;18.10;76.30;;;;;;5422435;26;20325;-73
2024/04/09 10:41:04;;;;;;;1.77;0.98;;;18.40;78.60;;;;;;5422388;26;20014;-73
2024/04/09 10:43:34;;;;;;;2.03;1.05;;;18.40;78.50;;;;;;5422487;26;20333;-73
2024/04/09 10:46:02;;;;;;;2.70;1.40;;;18.10;78.60;;;;;;5422222;26;20014;-73
2024/04/09 10:48:33;;;;;;;2.83;1.13;;;17.70;78.40;;;;;;5365753;26;20079;-73
2024/04/09 10:51:01;;;;;;;3.42;1.10;;;17.20;79.30;;;;;;5453777;26;20075;-73
2024/04/09 10:53:33;;;;;;;1.02;0.80;;;16.90;81.90;;;;;;5422185;26;20009;-73
2024/04/09 10:56:01;;;;;;;1.67;0.82;;;16.50;82.30;;;;;;5453748;26;20003;-73
2024/04/09 10:58:28;;;;;;;3.15;1.52;;;16.20;83.50;;;;;;5453677;26;20447;-73
2024/04/09 11:00:56;;;;;;;1.63;0.93;;;15.90;84.10;;;;;;5422702;26;19995;-73
2024/04/09 11:03:23;;;;;;;2.15;1.25;;;15.80;85.60;;;;;;5453755;26;20007;-72
2024/04/09 11:05:51;;;;;;;1.65;1.00;;;15.70;84.80;;;;;;5422548;26;19999;-73
2024/04/09 11:08:30;;;;;;;0.73;0.52;;;15.70;85.10;;;;;;5453782;26;19995;-73
2024/04/09 11:11:02;;;;;;;2.88;1.73;;;15.80;86.20;;;;;;5453771;26;20006;-73
2024/04/09 11:13:31;;;;;;;1.20;0.60;;;15.80;85.70;;;;;;5454173;26;20007;-73
2024/04/09 11:15:59;;;;;;;2.80;1.23;;;15.80;87.20;;;;;;5453790;26;19998;-73
2024/04/09 11:18:27;;;;;;;1.08;0.93;;;15.90;85.70;;;;;;5393840;26;20443;-73
2024/04/09 11:20:59;;;;;;;1.48;1.20;;;15.90;85.90;;;;;;5453504;26;19999;-73
2024/04/09 11:23:31;;;;;;;1.00;0.98;;;15.90;84.30;;;;;;5421817;26;20002;-73
2024/04/09 11:25:59;;;;;;;;;;;16.00;85.20;;;;;;5423479;26;20463;-73
2024/04/09 11:28:26;;;;;;;4.68;1.52;;;16.10;85.30;;;;;;5453525;26;19924;-73
2024/04/09 11:30:58;;;;;;;2.67;1.40;;;16.40;83.50;;;;;;5453306;26;20008;-73
2024/04/09 11:33:30;;;;;;;1.75;1.45;;;16.80;82.60;;;;;;5423365;26;20010;-73
2024/04/09 11:35:58;;;;;;;3.10;1.10;;;17.00;81.10;;;;;;5453088;26;20014;-73
2024/04/09 11:38:26;;;;;;;3.10;1.15;;;16.90;82.50;;;;;;5421886;26;20010;-73
2024/04/09 11:40:53;;;;;;;4.53;1.23;;;16.90;82.10;;;;;;5453273;26;20007;-73
2024/04/09 11:43:21;;;;;;;4.13;1.73;;;17.10;82.30;;;;;;5392057;26;19995;-73
2024/04/09 11:45:51;;;;;;;1.00;0.77;;;16.80;80.30;;;;;;5453680;26;20005;-73
2024/04/09 11:48:19;;;;;;;;;;;16.50;81.10;;;;;;5393465;26;20456;-73
2024/04/09 11:50:46;;;;;;;1.63;0.63;;;16.40;81.70;;;;;;5421814;26;20004;-73
2024/04/09 11:53:13;;;;;;;2.25;0.80;;;16.20;82.60;;;;;;5452773;26;20393;-73
2024/04/09 11:55:44;;;;;;;2.88;1.27;;;16.00;83.70;;;;;;5422819;26;19995;-72
2024/04/09 11:58:12;;;;;;;1.60;0.82;;;15.80;84.90;;;;;;5391533;26;20332;-73
2024/04/09 12:00:39;;;;;;;2.95;1.23;;;15.60;86.00;;;;;;5453206;26;19999;-73
2024/04/09 12:03:08;;;;;;;3.90;0.93;;;15.40;87.10;;;;;;5452458;26;20003;-73
2024/04/09 12:05:35;;;;;;;1.30;0.75;;;15.30;87.80;;;;;;5452990;26;20036;-72
2024/04/09 12:08:03;;;;;;;4.18;1.38;;;15.20;88.00;;;;;;5420656;26;20002;-73
2024/04/09 12:10:30;;;;;;;2.20;1.30;;;15.20;87.30;;;;;;5420986;26;20014;-73
2024/04/09 12:12:57;;;;;;;2.15;1.00;;;15.10;86.90;;;;;;5452552;26;20010;-72
2024/04/09 12:15:24;;;;;;;4.22;1.48;;;14.90;86.00;;;;;;5420025;26;20335;-73
2024/04/09 12:17:51;;;;;;;5.82;1.30;;;14.90;85.40;;;;;;5391635;26;19999;-73
2024/04/09 12:20:18;;;;;;;2.15;0.80;;;14.80;86.20;;;;;;5452727;26;19995;-72
2024/04/09 12:22:46;;;;;;;3.47;0.90;;;14.90;86.30;;;;;;5421651;26;19995;-73
2024/04/09 12:25:16;;;;;;;3.15;1.40;;;15.00;86.50;;;;;;5420567;26;20327;-73
2024/04/09 12:27:43;;;;;;;3.05;1.20;;;14.90;84.80;;;;;;5452623;26;20410;-73
2024/04/09 12:30:13;;;;;;;2.10;1.10;;;14.90;85.00;;;;;;5420835;26;19998;-72
2024/04/09 12:32:40;;;;;;;3.42;1.10;;;15.00;84.30;;;;;;5452853;26;19995;-73
2024/04/09 12:35:09;;;;;;;2.92;1.23;;;15.00;81.90;;;;;;5420370;26;19995;-73
2024/04/09 12:37:36;;;;;;;3.08;1.25;;;14.90;81.60;;;;;;5452091;26;20071;-72
2024/04/09 12:40:03;;;;;;;3.42;0.88;;;14.90;82.60;;;;;;5420166;26;20007;-73
2024/04/09 12:42:31;;;;;;;5.22;0.82;;;14.90;82.30;;;;;;5391382;26;19999;-73
2024/04/09 12:44:58;;;;;;;2.92;1.00;;;14.90;83.30;;;;;;5452262;26;20061;-73
2024/04/09 12:47:25;;;;;;;2.28;1.13;;;14.90;83.20;;;;;;5451883;26;20049;-73
2024/04/09 12:49:52;;;;;;;3.00;1.25;;;14.80;83.00;;;;;;5421026;26;19999;-73